Time;durP1;ratioP1;P1;durP2;ratioP2;P2;SDS_P1;SDS_P2;PMS_P1;PMS_P2;Temp;Humidity;BMP_temperature;BMP_pressure;BME280_temperature;BME280_humidity;BME280_pressure;Samples;Min_cycle;Max_cycle;Signal;HPM_P1;HPM_P2
2022/03/22 00:02:17;;;;;;;20.95;12.88;;;8.80;71.60;;;;;;5072082;28;20499;-45
2022/03/22 00:04:43;;;;;;;21.63;14.55;;;8.80;71.70;;;;;;5072728;28;20201;-47
2022/03/22 00:07:08;;;;;;;24.73;13.68;;;8.70;71.90;;;;;;5072059;28;20522;-44
2022/03/22 00:09:36;;;;;;;27.65;14.93;;;8.70;72.60;;;;;;5071661;28;20036;-52
2022/03/22 00:12:01;;;;;;;24.70;13.93;;;8.80;71.90;;;;;;5072222;28;20025;-46
2022/03/22 00:14:27;;;;;;;23.77;14.23;;;8.80;71.90;;;;;;5072210;28;20039;-47
2022/03/22 00:16:53;;;;;;;21.13;13.38;;;8.80;72.10;;;;;;5071594;28;20410;-42
2022/03/22 00:19:19;;;;;;;23.80;14.85;;;8.80;72.10;;;;;;5072136;28;20487;-51
2022/03/22 00:21:46;;;;;;;23.48;14.90;;;8.80;72.30;;;;;;5072131;28;20024;-48
2022/03/22 00:24:11;;;;;;;25.02;14.30;;;8.70;72.50;;;;;;5072081;28;20074;-49
2022/03/22 00:26:37;;;;;;;23.83;14.95;;;8.70;72.60;;;;;;5071335;28;20495;-50
2022/03/22 00:29:03;;;;;;;21.45;14.27;;;8.60;72.70;;;;;;5071535;28;20564;-46
2022/03/22 00:31:29;;;;;;;25.23;13.38;;;8.60;72.70;;;;;;5071855;28;20020;-45
2022/03/22 00:33:55;;;;;;;20.83;13.80;;;8.60;72.90;;;;;;5071767;28;20036;-51
2022/03/22 00:36:21;;;;;;;26.20;13.98;;;8.50;73.10;;;;;;5071645;28;20034;-46
2022/03/22 00:38:46;;;;;;;21.08;15.05;;;8.50;73.30;;;;;;5071536;28;20025;-46
2022/03/22 00:41:13;;;;;;;21.33;13.18;;;8.50;73.40;;;;;;5071650;28;20040;-46
2022/03/22 00:43:39;;;;;;;22.90;14.20;;;8.40;73.60;;;;;;5071505;28;20039;-46
2022/03/22 00:46:05;;;;;;;21.23;14.90;;;8.40;73.60;;;;;;5071890;28;20399;-46
2022/03/22 00:48:31;;;;;;;22.25;13.95;;;8.40;73.70;;;;;;5071632;28;20032;-47
2022/03/22 00:50:57;;;;;;;21.63;14.40;;;8.40;73.90;;;;;;5071633;28;20020;-42
2022/03/22 00:53:23;;;;;;;23.70;13.88;;;8.40;73.80;;;;;;5071625;28;20028;-46
2022/03/22 00:55:49;;;;;;;25.02;15.05;;;8.30;74.00;;;;;;5071334;28;20487;-45
2022/03/22 00:58:15;;;;;;;27.52;14.77;;;8.30;74.40;;;;;;5071191;28;20024;-48
2022/03/22 01:00:42;;;;;;;27.85;15.32;;;8.30;74.50;;;;;;5071425;28;20538;-45
2022/03/22 01:03:09;;;;;;;25.13;15.20;;;8.30;75.10;;;;;;5054883;28;20029;-39
2022/03/22 01:05:35;;;;;;;22.65;14.75;;;8.20;74.60;;;;;;5051436;28;20025;-44
2022/03/22 01:08:10;;;;;;;22.73;15.20;;;8.20;74.70;;;;;;5030625;28;20032;-42
2022/03/22 01:10:41;;;;;;;24.83;13.90;;;8.10;75.00;;;;;;5030790;28;20025;-42
2022/03/22 01:13:07;;;;;;;24.88;14.40;;;8.10;75.30;;;;;;5030887;28;20277;-49
2022/03/22 01:15:36;;;;;;;21.48;13.70;;;8.00;75.30;;;;;;5030967;28;20026;-46
2022/03/22 01:18:05;;;;;;;27.30;14.70;;;8.00;75.50;;;;;;5045782;28;20108;-42
2022/03/22 01:20:42;;;;;;;26.63;15.00;;;8.00;75.60;;;;;;5031125;28;20022;-46
2022/03/22 01:23:09;;;;;;;24.85;15.32;;;7.90;75.60;;;;;;5031292;28;20481;-43
2022/03/22 01:25:36;;;;;;;22.90;15.38;;;7.90;76.10;;;;;;5031303;28;20033;-44
2022/03/22 01:28:04;;;;;;;25.85;15.35;;;7.80;76.40;;;;;;5030963;28;20412;-50
2022/03/22 01:30:29;;;;;;;19.13;13.15;;;7.90;78.70;;;;;;5031399;28;20635;-47
2022/03/22 01:32:56;;;;;;;21.67;15.35;;;7.80;78.00;;;;;;5029891;28;20025;-45
2022/03/22 01:35:23;;;;;;;22.58;13.93;;;7.70;78.60;;;;;;5031077;28;20025;-47
2022/03/22 01:37:50;;;;;;;23.85;14.38;;;7.70;80.20;;;;;;5031456;28;20084;-45
2022/03/22 01:40:18;;;;;;;23.75;14.38;;;;;;;;;;5035111;28;20026;-45
2022/03/22 01:42:44;;;;;;;28.45;15.60;;;7.50;76.90;;;;;;5034910;28;20026;-43
2022/03/22 01:45:11;;;;;;;23.30;14.00;;;7.40;77.60;;;;;;5035141;28;20029;-45
2022/03/22 01:47:41;;;;;;;26.50;14.45;;;7.30;77.70;;;;;;5034959;28;20025;-48
2022/03/22 01:50:10;;;;;;;24.88;15.40;;;7.20;78.20;;;;;;5035096;28;20095;-48
2022/03/22 01:52:39;;;;;;;24.05;15.35;;;7.20;78.60;;;;;;5035067;28;20087;-47
2022/03/22 01:55:06;;;;;;;26.17;15.38;;;7.10;78.90;;;;;;5034709;28;20032;-46
2022/03/22 01:57:33;;;;;;;24.33;14.55;;;7.10;79.00;;;;;;5034168;28;20026;-46
2022/03/22 02:00:00;;;;;;;20.77;14.07;;;7.00;79.20;;;;;;5034698;28;20029;-45
2022/03/22 02:08:00;;;;;;;24.58;14.55;;;6.90;79.80;;;;;;5033926;28;20032;-44
2022/03/22 02:10:26;;;;;;;22.70;13.57;;;6.90;80.10;;;;;;5034561;28;20124;-47
2022/03/22 02:12:52;;;;;;;26.15;15.23;;;6.80;80.20;;;;;;5034427;28;20069;-44
2022/03/22 02:15:18;;;;;;;24.73;14.45;;;6.70;80.50;;;;;;5049861;28;20030;-49
2022/03/22 02:17:45;;;;;;;23.45;15.35;;;6.60;80.80;;;;;;5033891;28;20520;-45
2022/03/22 02:20:15;;;;;;;27.35;14.30;;;6.50;81.20;;;;;;5034325;28;20461;-46
2022/03/22 02:22:50;;;;;;;21.73;13.98;;;6.50;81.50;;;;;;5034141;28;20440;-48
2022/03/22 02:25:15;;;;;;;25.55;15.20;;;6.50;81.40;;;;;;5034283;28;20075;-47
2022/03/22 02:27:44;;;;;;;20.27;13.23;;;6.40;81.50;;;;;;5033850;28;20022;-44
2022/03/22 02:30:13;;;;;;;21.13;13.93;;;6.40;81.80;;;;;;5034187;28;20105;-47
2022/03/22 02:32:39;;;;;;;25.15;14.20;;;6.40;81.70;;;;;;5034047;28;20025;-48
2022/03/22 02:35:06;;;;;;;22.95;13.57;;;6.40;81.80;;;;;;5032506;28;20017;-43
2022/03/22 02:37:32;;;;;;;25.13;14.40;;;6.30;82.00;;;;;;5034276;28;20018;-48
2022/03/22 02:39:57;;;;;;;22.65;14.02;;;6.30;82.20;;;;;;5050752;28;20037;-44
2022/03/22 02:42:23;;;;;;;25.35;14.18;;;6.30;82.30;;;;;;5035160;28;20033;-50
2022/03/22 02:44:48;;;;;;;19.45;13.32;;;6.30;82.50;;;;;;5035305;28;20022;-47
2022/03/22 02:47:14;;;;;;;18.98;14.07;;;6.20;82.80;;;;;;5035276;28;20065;-48
2022/03/22 02:49:39;;;;;;;22.15;14.05;;;6.20;83.10;;;;;;5035396;28;20026;-45
2022/03/22 02:52:05;;;;;;;25.67;14.15;;;6.10;83.40;;;;;;5035208;28;20032;-53
2022/03/22 02:54:31;;;;;;;21.52;13.65;;;6.10;83.60;;;;;;5035164;28;20036;-48
2022/03/22 02:56:57;;;;;;;22.88;14.60;;;6.10;83.60;;;;;;5034310;28;20101;-52
2022/03/22 02:59:22;;;;;;;21.83;13.18;;;6.00;83.70;;;;;;5034757;28;20036;-48
2022/03/22 03:01:48;;;;;;;23.88;15.05;;;6.00;83.60;;;;;;5035251;28;20040;-47
2022/03/22 03:04:13;;;;;;;19.52;13.13;;;6.00;83.70;;;;;;5035674;28;20033;-49
2022/03/22 03:06:39;;;;;;;20.15;14.07;;;6.10;84.40;;;;;;5034573;28;20466;-51
2022/03/22 03:09:04;;;;;;;20.88;14.52;;;6.10;83.70;;;;;;5034304;28;20079;-51
2022/03/22 03:11:30;;;;;;;25.88;13.85;;;6.00;83.90;;;;;;5035682;28;20388;-48
2022/03/22 03:16:40;;;;;;;23.27;13.55;;;6.00;84.20;;;;;;5034693;28;20032;-52
2022/03/22 03:19:06;;;;;;;19.17;12.75;;;5.90;84.60;;;;;;5034588;28;20014;-48
2022/03/22 03:21:31;;;;;;;24.30;13.98;;;5.80;84.80;;;;;;5034401;28;20033;-49
2022/03/22 03:23:57;;;;;;;26.45;14.35;;;5.70;85.20;;;;;;5034434;28;20030;-51
2022/03/22 03:26:22;;;;;;;20.77;13.88;;;5.70;85.40;;;;;;5034648;28;20099;-45
2022/03/22 03:28:48;;;;;;;22.23;14.00;;;5.70;85.50;;;;;;5034316;28;20477;-50
2022/03/22 03:31:13;;;;;;;17.80;12.98;;;5.60;85.80;;;;;;5034643;28;20083;-49
2022/03/22 03:33:39;;;;;;;23.23;13.80;;;5.60;86.00;;;;;;5034478;28;20417;-47
2022/03/22 03:36:05;;;;;;;26.88;14.02;;;5.60;85.90;;;;;;5034078;28;20031;-44
2022/03/22 03:38:30;;;;;;;23.60;14.52;;;5.60;85.90;;;;;;5034467;28;20029;-49
2022/03/22 03:43:40;;;;;;;24.55;14.00;;;5.70;85.40;;;;;;5072826;22;20051;-48
2022/03/22 03:48:49;;;;;;;18.88;12.20;;;5.70;85.20;;;;;;5112687;28;20059;-45
2022/03/22 03:51:15;;;;;;;21.95;12.90;;;5.70;85.30;;;;;;5113203;28;20447;-47
2022/03/22 03:53:40;;;;;;;27.17;14.02;;;5.60;85.50;;;;;;5112947;28;20023;-44
2022/03/22 03:56:06;;;;;;;24.00;13.82;;;5.60;85.60;;;;;;5112878;28;20024;-47
2022/03/22 03:58:31;;;;;;;23.85;14.13;;;5.70;85.20;;;;;;5112586;28;20103;-47
2022/03/22 04:00:57;;;;;;;23.25;14.10;;;5.60;85.30;;;;;;5112291;28;20478;-45
2022/03/22 04:03:23;;;;;;;20.83;13.15;;;5.70;85.30;;;;;;5113072;28;20077;-45
2022/03/22 04:05:48;;;;;;;22.13;14.05;;;5.70;85.10;;;;;;5094511;28;20031;-46
2022/03/22 04:08:13;;;;;;;22.10;13.35;;;5.80;84.80;;;;;;5112104;28;20031;-48
2022/03/22 04:10:39;;;;;;;18.88;12.52;;;5.80;84.30;;;;;;5094558;28;20058;-48
2022/03/22 04:13:04;;;;;;;18.00;13.15;;;5.80;84.00;;;;;;5112625;28;20039;-47
2022/03/22 04:15:30;;;;;;;18.63;12.23;;;5.70;84.20;;;;;;5112485;28;20028;-49
2022/03/22 04:17:59;;;;;;;20.73;13.80;;;5.70;84.20;;;;;;5094132;28;20061;-47
2022/03/22 04:20:25;;;;;;;17.58;12.50;;;5.70;84.30;;;;;;5112593;28;20023;-47
2022/03/22 04:22:51;;;;;;;19.73;13.20;;;5.70;84.50;;;;;;5112755;28;20095;-45
2022/03/22 04:25:17;;;;;;;18.08;11.80;;;5.70;84.30;;;;;;5112570;28;20150;-47
2022/03/22 04:33:11;;;;;;;21.88;12.75;;;5.60;85.10;;;;;;5112693;28;20371;-45
2022/03/22 04:35:37;;;;;;;19.65;13.05;;;5.60;85.30;;;;;;5112383;28;20024;-45
2022/03/22 04:38:03;;;;;;;20.15;13.02;;;5.50;85.70;;;;;;5112259;28;20031;-50
2022/03/22 04:40:29;;;;;;;17.55;13.02;;;5.40;85.90;;;;;;5094071;28;20505;-46
2022/03/22 04:42:54;;;;;;;19.25;12.85;;;5.50;86.10;;;;;;5093819;28;20114;-47
2022/03/22 04:45:20;;;;;;;24.30;13.15;;;5.40;86.40;;;;;;5112323;28;20027;-45
2022/03/22 04:47:45;;;;;;;26.30;13.05;;;5.40;86.70;;;;;;5111848;28;20076;-45
2022/03/22 04:50:13;;;;;;;25.15;14.32;;;5.20;87.20;;;;;;5112294;28;20030;-46
2022/03/22 04:58:07;;;;;;;20.48;13.95;;;5.20;87.50;;;;;;5112216;28;20389;-45
2022/03/22 05:00:36;;;;;;;21.98;14.10;;;5.30;87.50;;;;;;5093756;28;20035;-47
2022/03/22 05:03:03;;;;;;;19.27;13.23;;;5.30;87.70;;;;;;5111894;28;20027;-49
2022/03/22 05:08:13;;;;;;;20.15;13.07;;;5.10;88.20;;;;;;5111634;28;20034;-49
2022/03/22 05:10:38;;;;;;;24.15;14.10;;;5.00;88.70;;;;;;5111909;28;20382;-47
2022/03/22 05:13:04;;;;;;;20.77;13.98;;;5.00;89.00;;;;;;5096409;28;20019;-49
2022/03/22 05:15:33;;;;;;;22.50;13.55;;;4.90;89.20;;;;;;5097814;28;20065;-47
2022/03/22 05:17:59;;;;;;;21.85;14.02;;;4.90;89.60;;;;;;5115747;28;20574;-44
2022/03/22 05:20:25;;;;;;;25.65;13.93;;;4.90;89.70;;;;;;5116372;28;20102;-47
2022/03/22 05:22:51;;;;;;;21.17;12.35;;;4.90;89.70;;;;;;5116073;28;20020;-49
2022/03/22 05:25:16;;;;;;;19.63;13.82;;;4.90;89.60;;;;;;5116105;28;20078;-50
2022/03/22 05:27:42;;;;;;;24.90;14.35;;;4.90;89.60;;;;;;5115703;28;20039;-46
2022/03/22 05:30:08;;;;;;;19.48;13.48;;;5.00;89.50;;;;;;5116181;28;20510;-46
2022/03/22 05:32:34;;;;;;;17.88;13.05;;;4.90;89.50;;;;;;5115798;28;20035;-46
2022/03/22 05:35:00;;;;;;;21.48;13.48;;;4.90;89.60;;;;;;5116011;28;20027;-46
2022/03/22 05:37:25;;;;;;;23.70;13.98;;;4.90;89.60;;;;;;5115224;28;20016;-46
2022/03/22 05:39:51;;;;;;;20.88;13.98;;;5.00;89.40;;;;;;5097523;28;20035;-46
2022/03/22 05:42:16;;;;;;;23.85;14.63;;;5.10;89.40;;;;;;5116178;28;20043;-44
2022/03/22 05:44:47;;;;;;;25.30;14.32;;;5.10;89.10;;;;;;5115428;28;20088;-48
2022/03/22 05:47:13;;;;;;;21.35;13.77;;;5.30;88.70;;;;;;5115280;28;20036;-47
2022/03/22 05:49:39;;;;;;;22.02;13.93;;;5.40;88.20;;;;;;5115693;28;20542;-47
2022/03/22 05:52:05;;;;;;;21.92;14.30;;;5.70;87.10;;;;;;5115389;28;20019;-45
2022/03/22 05:54:32;;;;;;;22.30;14.15;;;5.80;86.50;;;;;;5115248;28;20031;-47
2022/03/22 05:56:58;;;;;;;21.10;14.23;;;5.90;86.00;;;;;;5114948;28;20030;-46
2022/03/22 05:59:24;;;;;;;22.10;13.63;;;6.10;85.50;;;;;;5097035;28;20030;-47
2022/03/22 06:01:49;;;;;;;29.60;15.18;;;6.20;85.10;;;;;;5115163;28;20445;-46
2022/03/22 06:04:16;;;;;;;25.15;14.30;;;6.20;84.40;;;;;;5115258;28;20099;-46
2022/03/22 06:06:42;;;;;;;20.20;13.93;;;6.10;85.00;;;;;;5115078;28;20015;-50
2022/03/22 06:09:07;;;;;;;23.02;14.98;;;6.10;85.10;;;;;;5096487;28;20489;-44
2022/03/22 06:11:36;;;;;;;23.80;14.13;;;6.20;84.90;;;;;;5114990;28;20085;-45
2022/03/22 06:14:05;;;;;;;20.85;12.82;;;6.30;83.90;;;;;;5114972;28;20023;-45
2022/03/22 06:16:32;;;;;;;21.13;14.10;;;6.40;83.90;;;;;;5114690;28;20387;-47
2022/03/22 06:18:58;;;;;;;23.17;14.15;;;6.40;84.00;;;;;;5096746;28;20103;-44
2022/03/22 06:21:24;;;;;;;21.02;14.63;;;6.30;84.50;;;;;;5114906;28;20020;-47
2022/03/22 06:23:50;;;;;;;22.33;14.18;;;6.40;84.20;;;;;;5114287;28;20032;-45
2022/03/22 06:26:16;;;;;;;19.98;13.65;;;6.50;83.70;;;;;;5114849;28;20067;-46
2022/03/22 06:28:42;;;;;;;20.80;14.63;;;6.70;83.30;;;;;;5114675;28;20016;-49
2022/03/22 06:31:07;;;;;;;22.30;14.50;;;6.90;82.10;;;;;;5114667;28;20059;-47
2022/03/22 06:33:33;;;;;;;20.48;13.75;;;7.00;81.70;;;;;;5114587;28;20067;-47
2022/03/22 06:35:59;;;;;;;18.88;13.38;;;7.20;81.20;;;;;;5114327;28;20035;-44
2022/03/22 06:38:25;;;;;;;23.05;14.48;;;7.40;80.80;;;;;;5114307;28;20024;-46
2022/03/22 06:40:50;;;;;;;21.33;14.43;;;7.60;80.20;;;;;;5114501;28;20089;-50
2022/03/22 06:43:17;;;;;;;21.58;14.40;;;7.80;79.40;;;;;;5114337;28;20042;-46
2022/03/22 06:45:44;;;;;;;21.48;14.07;;;8.00;79.00;;;;;;5114083;28;20479;-46
2022/03/22 06:48:10;;;;;;;21.02;13.60;;;8.30;77.70;;;;;;5095912;28;20026;-44
2022/03/22 06:50:37;;;;;;;19.95;13.63;;;8.30;77.00;;;;;;5114249;28;20505;-46
2022/03/22 06:53:04;;;;;;;19.80;13.32;;;8.30;76.90;;;;;;5114088;28;20028;-48
2022/03/22 06:55:32;;;;;;;22.20;14.32;;;8.20;77.10;;;;;;5114264;28;20031;-47
2022/03/22 06:57:58;;;;;;;22.00;13.95;;;8.10;77.10;;;;;;5113729;28;20129;-50
2022/03/22 07:00:28;;;;;;;21.17;14.55;;;8.10;77.00;;;;;;5114220;28;20139;-45
2022/03/22 07:02:54;;;;;;;19.80;13.05;;;8.30;76.30;;;;;;5095667;28;20020;-49
2022/03/22 07:05:19;;;;;;;21.15;13.57;;;8.60;75.10;;;;;;5114054;28;20107;-49
2022/03/22 07:07:45;;;;;;;18.63;13.23;;;8.80;74.40;;;;;;5113020;28;20104;-46
2022/03/22 07:10:13;;;;;;;18.60;13.18;;;9.10;73.70;;;;;;5114005;28;20028;-47
2022/03/22 07:12:56;;;;;;;19.83;13.27;;;9.50;71.40;;;;;;5113956;28;20098;-47
2022/03/22 07:15:26;;;;;;;20.45;13.07;;;9.40;71.30;;;;;;5113813;28;20102;-46
2022/03/22 07:17:56;;;;;;;19.15;12.82;;;9.50;70.70;;;;;;5113540;28;20131;-47
2022/03/22 07:20:22;;;;;;;18.63;13.57;;;9.70;71.20;;;;;;5114185;28;20015;-47
2022/03/22 07:22:48;;;;;;;20.52;13.60;;;10.00;69.90;;;;;;5095784;28;20356;-48
2022/03/22 07:25:13;;;;;;;21.92;14.18;;;10.10;69.00;;;;;;5113738;28;20012;-47
2022/03/22 07:27:39;;;;;;;17.60;12.02;;;10.40;68.40;;;;;;5095028;28;20020;-47
2022/03/22 07:30:05;;;;;;;18.08;13.00;;;10.50;68.00;;;;;;5113652;28;20034;-47
2022/03/22 07:32:31;;;;;;;18.23;12.63;;;10.80;67.60;;;;;;5113268;28;20072;-46
2022/03/22 07:35:00;;;;;;;21.92;13.70;;;10.80;66.70;;;;;;5112868;28;20039;-50
2022/03/22 07:37:29;;;;;;;19.13;12.35;;;11.30;66.50;;;;;;5112513;28;20024;-46
2022/03/22 07:39:56;;;;;;;21.63;13.07;;;11.30;66.00;;;;;;5095731;28;20038;-49
2022/03/22 07:42:24;;;;;;;19.65;13.40;;;11.30;66.00;;;;;;5113411;28;20019;-45
2022/03/22 07:44:49;;;;;;;28.90;13.00;;;11.60;65.10;;;;;;5113217;28;20505;-46
2022/03/22 07:47:15;;;;;;;19.48;11.73;;;11.70;63.20;;;;;;5113294;28;20031;-49
2022/03/22 07:55:10;;;;;;;15.20;12.20;;;12.60;61.10;;;;;;5113573;28;20035;-46
2022/03/22 07:57:35;;;;;;;19.63;13.50;;;12.70;61.50;;;;;;5112597;28;20558;-49
2022/03/22 08:00:01;;;;;;;15.40;12.13;;;12.70;61.50;;;;;;5113114;28;20099;-47
2022/03/22 08:02:27;;;;;;;18.80;13.27;;;12.10;62.70;;;;;;5113091;28;20023;-47
2022/03/22 08:04:53;;;;;;;18.05;12.23;;;11.20;64.30;;;;;;5112822;28;20019;-45
2022/03/22 08:07:18;;;;;;;22.15;13.88;;;10.30;66.00;;;;;;5112522;28;20028;-47
2022/03/22 08:09:45;;;;;;;17.55;11.68;;;9.80;67.30;;;;;;5112479;28;20103;-48
2022/03/22 08:12:12;;;;;;;18.75;12.07;;;9.50;68.70;;;;;;5112784;28;20024;-46
2022/03/22 08:14:38;;;;;;;18.58;13.32;;;9.30;69.50;;;;;;5112660;28;20077;-46
2022/03/22 08:17:03;;;;;;;28.38;13.20;;;9.20;70.20;;;;;;5112688;28;20470;-45
2022/03/22 08:19:29;;;;;;;25.23;13.57;;;9.10;70.00;;;;;;5112589;28;20046;-49
2022/03/22 08:21:55;;;;;;;21.75;14.02;;;9.10;70.60;;;;;;5112563;28;20398;-47
2022/03/22 08:24:20;;;;;;;23.20;13.90;;;9.00;70.40;;;;;;5094345;28;20048;-46
2022/03/22 08:26:46;;;;;;;17.40;12.07;;;9.00;70.90;;;;;;5112473;28;20500;-43
2022/03/22 08:29:11;;;;;;;16.88;13.20;;;9.20;70.70;;;;;;5112593;28;20102;-46
2022/03/22 08:31:37;;;;;;;18.83;12.82;;;9.20;70.00;;;;;;5112836;28;20023;-45
2022/03/22 08:34:03;;;;;;;21.90;13.38;;;9.20;69.90;;;;;;5112491;28;20019;-47
2022/03/22 08:36:29;;;;;;;19.92;13.13;;;9.30;70.00;;;;;;5094550;28;20027;-46
2022/03/22 08:38:55;;;;;;;15.85;11.85;;;9.40;69.60;;;;;;5112551;28;20536;-44
2022/03/22 08:41:20;;;;;;;21.33;13.48;;;9.40;68.40;;;;;;5113456;28;20118;-48
2022/03/22 08:43:46;;;;;;;21.95;11.95;;;9.40;69.60;;;;;;5112369;28;20027;-50
2022/03/22 08:46:14;;;;;;;16.85;13.10;;;9.50;68.60;;;;;;5094110;28;20065;-50
2022/03/22 08:48:39;;;;;;;21.30;13.95;;;9.50;68.40;;;;;;5111636;28;20028;-47
2022/03/22 08:51:05;;;;;;;17.70;12.27;;;9.60;68.90;;;;;;5112418;28;20028;-46
2022/03/22 08:53:33;;;;;;;21.92;12.55;;;9.70;68.50;;;;;;5093921;28;20459;-46
2022/03/22 08:56:03;;;;;;;17.33;11.35;;;9.70;67.80;;;;;;5111955;28;20106;-46
2022/03/22 08:58:30;;;;;;;15.40;11.73;;;9.80;65.70;;;;;;5112121;28;20048;-45
2022/03/22 09:00:55;;;;;;;18.73;11.80;;;9.90;65.80;;;;;;5111603;28;20497;-47
2022/03/22 09:03:22;;;;;;;23.10;12.43;;;10.10;65.70;;;;;;5111492;28;20096;-47
2022/03/22 09:08:34;;;;;;;15.57;11.70;;;12.00;62.00;;;;;;5111387;28;20472;-47
2022/03/22 09:10:59;;;;;;;13.48;10.43;;;13.10;59.70;;;;;;5111802;28;20016;-47
2022/03/22 09:13:28;;;;;;;20.20;13.52;;;14.00;57.80;;;;;;5111730;28;20386;-50
2022/03/22 09:15:55;;;;;;;15.48;11.10;;;14.30;57.30;;;;;;5111675;28;20020;-44
2022/03/22 09:18:21;;;;;;;12.75;11.43;;;14.80;55.70;;;;;;5111733;28;20012;-47
2022/03/22 09:20:47;;;;;;;15.30;11.25;;;15.70;55.00;;;;;;5111927;28;20554;-44
2022/03/22 09:23:14;;;;;;;24.98;12.13;;;15.80;53.50;;;;;;5111934;28;20027;-46
2022/03/22 09:25:41;;;;;;;19.65;11.10;;;16.40;53.40;;;;;;5111716;28;20019;-46
2022/03/22 09:28:07;;;;;;;26.35;11.05;;;16.60;53.00;;;;;;5111501;28;20509;-46
2022/03/22 09:30:34;;;;;;;14.07;11.65;;;16.40;52.10;;;;;;5111595;28;20497;-50
2022/03/22 09:33:02;;;;;;;19.15;12.30;;;15.80;52.90;;;;;;5111584;28;20291;-44
2022/03/22 09:35:28;;;;;;;13.40;11.40;;;15.60;52.40;;;;;;5111779;28;20031;-47
2022/03/22 09:37:54;;;;;;;12.18;10.23;;;15.70;53.50;;;;;;5111263;28;20059;-46
2022/03/22 09:40:22;;;;;;;16.88;10.93;;;15.70;53.00;;;;;;5111715;28;20030;-44
2022/03/22 09:42:48;;;;;;;15.63;10.98;;;15.80;53.50;;;;;;5111591;28;20026;-44
2022/03/22 09:45:17;;;;;;;18.27;10.85;;;15.50;52.60;;;;;;5132315;22;20044;-50
2022/03/22 09:47:44;;;;;;;14.20;10.07;;;15.20;52.30;;;;;;5110982;28;20020;-53
2022/03/22 09:50:11;;;;;;;15.77;10.95;;;14.70;52.60;;;;;;5111683;28;20032;-47
2022/03/22 09:52:37;;;;;;;15.40;12.15;;;14.30;53.80;;;;;;5112208;28;20077;-46
2022/03/22 09:55:05;;;;;;;19.20;10.75;;;14.30;54.40;;;;;;5111791;28;20031;-48
2022/03/22 09:57:30;;;;;;;17.75;11.35;;;14.00;54.00;;;;;;5111550;28;20019;-49
2022/03/22 09:59:56;;;;;;;19.58;11.25;;;13.90;54.70;;;;;;5113922;28;20573;-47
2022/03/22 10:02:34;;;;;;;14.25;11.18;;;14.00;55.20;;;;;;5115411;28;20487;-50
2022/03/22 10:05:00;;;;;;;12.50;10.93;;;14.10;54.90;;;;;;5115494;28;20016;-48
2022/03/22 10:07:27;;;;;;;14.32;10.18;;;14.20;54.50;;;;;;5115230;28;20034;-51
2022/03/22 10:10:00;;;;;;;16.45;11.93;;;14.40;55.00;;;;;;5115323;28;20027;-50
2022/03/22 10:12:37;;;;;;;19.88;11.57;;;14.30;54.50;;;;;;5115533;28;20034;-49
2022/03/22 10:15:17;;;;;;;18.27;11.18;;;14.40;54.80;;;;;;5115258;28;20026;-44
2022/03/22 10:17:44;;;;;;;20.40;12.43;;;14.30;55.00;;;;;;5114744;28;20028;-46
2022/03/22 10:20:24;;;;;;;15.77;11.18;;;14.10;54.90;;;;;;5115230;28;20024;-48
2022/03/22 10:22:59;;;;;;;16.13;11.80;;;13.90;55.20;;;;;;5115387;28;20019;-49
2022/03/22 10:25:26;;;;;;;18.10;11.15;;;13.80;56.00;;;;;;5115419;28;20035;-48
2022/03/22 10:27:56;;;;;;;16.90;11.82;;;14.10;56.10;;;;;;5114681;28;20080;-51
2022/03/22 10:30:22;;;;;;;15.10;11.57;;;14.30;56.20;;;;;;5115553;28;20378;-47
2022/03/22 10:32:51;;;;;;;19.20;11.45;;;14.30;55.80;;;;;;5096884;28;20074;-45
2022/03/22 10:35:22;;;;;;;19.10;11.15;;;14.30;56.10;;;;;;5115145;28;20034;-51
2022/03/22 10:37:50;;;;;;;21.88;12.38;;;14.50;55.50;;;;;;5114754;28;20056;-45
2022/03/22 10:40:26;;;;;;;21.45;12.05;;;14.20;55.80;;;;;;5114828;28;20068;-48
2022/03/22 10:42:55;;;;;;;16.88;12.13;;;14.30;56.50;;;;;;5115153;28;20490;-50
2022/03/22 10:45:20;;;;;;;17.13;12.23;;;14.40;55.50;;;;;;5096291;28;20035;-47
2022/03/22 10:47:46;;;;;;;15.30;11.35;;;14.40;56.00;;;;;;5114546;28;20023;-49
2022/03/22 10:50:13;;;;;;;18.02;11.55;;;14.30;56.60;;;;;;5114813;28;20035;-48
2022/03/22 10:52:50;;;;;;;17.00;12.00;;;14.30;56.40;;;;;;5114870;28;20085;-47
2022/03/22 10:55:19;;;;;;;15.60;11.88;;;14.30;55.80;;;;;;5096266;28;20020;-52
2022/03/22 10:57:51;;;;;;;21.33;11.25;;;14.30;56.60;;;;;;5114108;28;20111;-48
2022/03/22 11:00:17;;;;;;;18.00;11.75;;;14.30;56.00;;;;;;5114664;28;20034;-49
2022/03/22 11:02:48;;;;;;;23.23;11.52;;;14.10;56.50;;;;;;5114571;28;20028;-46
2022/03/22 11:05:14;;;;;;;30.05;12.05;;;14.10;57.00;;;;;;5114297;28;20093;-49
2022/03/22 11:07:40;;;;;;;20.50;11.52;;;14.20;57.20;;;;;;5113491;28;20033;-47
2022/03/22 11:10:06;;;;;;;16.55;11.07;;;14.20;57.10;;;;;;5114199;28;20541;-48
2022/03/22 11:12:34;;;;;;;20.02;11.73;;;14.30;56.20;;;;;;5114523;28;20031;-48
2022/03/22 11:15:02;;;;;;;20.02;12.25;;;14.40;55.40;;;;;;5114050;28;20023;-45
2022/03/22 11:17:29;;;;;;;18.27;11.27;;;14.30;55.00;;;;;;5113497;28;20054;-47
2022/03/22 11:19:55;;;;;;;16.27;11.40;;;14.20;55.30;;;;;;5114090;28;20090;-51
2022/03/22 11:22:22;;;;;;;17.02;11.20;;;14.20;55.30;;;;;;5114096;28;20023;-50
2022/03/22 11:24:48;;;;;;;14.43;10.75;;;14.30;54.70;;;;;;5113993;28;20035;-49
2022/03/22 11:27:14;;;;;;;15.40;10.93;;;14.30;54.50;;;;;;5095360;28;20027;-49
2022/03/22 11:29:41;;;;;;;15.98;11.38;;;14.40;54.00;;;;;;5114192;28;20106;-52
2022/03/22 11:34:58;;;;;;;17.88;11.18;;;14.50;54.10;;;;;;5113963;28;20031;-49
2022/03/22 11:37:34;;;;;;;14.98;10.63;;;14.50;53.70;;;;;;5113526;28;20035;-48
2022/03/22 11:42:57;;;;;;;15.90;10.53;;;14.60;54.00;;;;;;5113651;28;20031;-49
2022/03/22 11:45:24;;;;;;;18.67;11.52;;;14.60;54.30;;;;;;5113264;28;20034;-49
2022/03/22 11:47:53;;;;;;;13.70;10.25;;;14.60;53.70;;;;;;5113211;28;20046;-47
2022/03/22 11:50:21;;;;;;;21.77;10.95;;;14.50;54.30;;;;;;5113437;28;20016;-49
2022/03/22 11:52:54;;;;;;;15.68;10.30;;;14.50;54.00;;;;;;5113446;28;20432;-47
2022/03/22 11:55:25;;;;;;;13.55;11.27;;;14.60;55.10;;;;;;5113158;28;20109;-48
2022/03/22 11:57:53;;;;;;;13.27;10.48;;;14.70;53.50;;;;;;5112778;28;20024;-51
2022/03/22 12:00:45;;;;;;;17.05;11.85;;;14.80;54.00;;;;;;5113223;28;20110;-51
2022/03/22 12:03:13;;;;;;;14.60;11.10;;;14.90;54.50;;;;;;5113907;28;20555;-53
2022/03/22 12:05:39;;;;;;;19.00;10.82;;;14.90;53.70;;;;;;5112653;28;20050;-50
2022/03/22 12:08:06;;;;;;;13.68;11.25;;;15.00;53.20;;;;;;5112271;28;20023;-50
2022/03/22 12:10:32;;;;;;;13.13;10.13;;;14.90;53.30;;;;;;5112985;28;20028;-48
2022/03/22 12:12:58;;;;;;;15.52;10.57;;;15.00;54.00;;;;;;5112801;28;20023;-49
2022/03/22 12:15:24;;;;;;;15.10;10.70;;;14.90;53.20;;;;;;5112925;28;20133;-45
2022/03/22 12:17:50;;;;;;;15.68;10.30;;;14.90;53.50;;;;;;5112721;28;20047;-52
2022/03/22 12:20:19;;;;;;;14.50;10.70;;;15.00;53.70;;;;;;5112814;28;20019;-55
2022/03/22 12:22:50;;;;;;;13.45;9.73;;;15.00;53.10;;;;;;5112367;28;20020;-49
2022/03/22 12:25:21;;;;;;;17.27;10.55;;;15.10;53.30;;;;;;5112715;28;20022;-49
2022/03/22 12:28:07;;;;;;;12.95;10.45;;;15.10;52.80;;;;;;5112446;28;20486;-49
2022/03/22 12:30:38;;;;;;;15.05;10.50;;;15.30;53.10;;;;;;5112797;28;20423;-50
2022/03/22 12:33:18;;;;;;;13.00;10.63;;;15.40;51.90;;;;;;5112616;28;20118;-51
2022/03/22 12:35:45;;;;;;;21.55;11.30;;;15.40;51.70;;;;;;5112557;28;20027;-50
2022/03/22 12:38:11;;;;;;;16.83;10.02;;;15.50;52.70;;;;;;5112132;28;20436;-49
2022/03/22 12:40:37;;;;;;;13.00;10.25;;;15.50;52.80;;;;;;5112510;28;20027;-44
2022/03/22 12:43:05;;;;;;;12.75;10.20;;;15.60;52.30;;;;;;5112269;28;20051;-49
2022/03/22 12:45:33;;;;;;;12.25;10.02;;;15.70;52.50;;;;;;5112397;28;20088;-50
2022/03/22 12:48:00;;;;;;;19.05;10.10;;;15.70;52.10;;;;;;5112182;28;20024;-48
2022/03/22 12:50:27;;;;;;;18.25;10.05;;;15.80;51.70;;;;;;5112477;28;20443;-49
2022/03/22 12:52:53;;;;;;;13.48;9.88;;;15.80;52.10;;;;;;5112374;28;20016;-47
2022/03/22 12:55:22;;;;;;;20.95;11.55;;;16.00;51.60;;;;;;5112345;28;20081;-49
2022/03/22 12:57:48;;;;;;;15.40;10.32;;;15.90;50.90;;;;;;5111748;28;20028;-49
2022/03/22 13:00:37;;;;;;;16.60;9.50;;;15.90;50.80;;;;;;5112259;28;20023;-53
2022/03/22 13:03:11;;;;;;;18.92;10.75;;;15.80;50.50;;;;;;5112404;28;20022;-50
2022/03/22 13:05:45;;;;;;;11.45;9.15;;;16.00;50.60;;;;;;5112386;28;20076;-50
2022/03/22 13:08:12;;;;;;;16.63;8.95;;;16.00;50.00;;;;;;5111126;28;20024;-50
2022/03/22 13:13:22;;;;;;;12.18;9.70;;;16.00;49.40;;;;;;5112651;28;20031;-53
2022/03/22 13:15:52;;;;;;;12.82;8.68;;;16.00;49.50;;;;;;5111606;28;20020;-49
2022/03/22 13:18:19;;;;;;;17.88;9.43;;;16.00;50.20;;;;;;5112033;28;20051;-53